sensor_id;sensor_type;location;lat;lon;timestamp;temperature;humidity
77052;SHT30;65980;44.898;8.602;2023-04-24T00:00:40;15.55;70.99
77052;SHT30;65980;44.898;8.602;2023-04-24T00:03:44;15.45;71.17
77052;SHT30;65980;44.898;8.602;2023-04-24T00:06:48;15.25;71.97
77052;SHT30;65980;44.898;8.602;2023-04-24T00:09:57;14.93;73.12
77052;SHT30;65980;44.898;8.602;2023-04-24T00:13:02;15.01;72.89
77052;SHT30;65980;44.898;8.602;2023-04-24T00:16:05;15.18;72.80
77052;SHT30;65980;44.898;8.602;2023-04-24T00:19:09;15.18;72.99
77052;SHT30;65980;44.898;8.602;2023-04-24T00:22:15;15.38;71.97
77052;SHT30;65980;44.898;8.602;2023-04-24T00:25:19;14.89;73.68
77052;SHT30;65980;44.898;8.602;2023-04-24T00:28:24;14.90;73.66
77052;SHT30;65980;44.898;8.602;2023-04-24T00:31:28;15.08;73.02
77052;SHT30;65980;44.898;8.602;2023-04-24T00:34:34;15.31;72.57
77052;SHT30;65980;44.898;8.602;2023-04-24T00:37:38;15.45;72.15
77052;SHT30;65980;44.898;8.602;2023-04-24T00:40:42;15.54;71.45
77052;SHT30;65980;44.898;8.602;2023-04-24T00:43:47;15.46;71.92
77052;SHT30;65980;44.898;8.602;2023-04-24T00:46:51;15.35;72.08
77052;SHT30;65980;44.898;8.602;2023-04-24T00:50:00;15.49;71.69
77052;SHT30;65980;44.898;8.602;2023-04-24T00:53:09;15.35;72.30
77052;SHT30;65980;44.898;8.602;2023-04-24T00:56:14;15.34;72.14
77052;SHT30;65980;44.898;8.602;2023-04-24T00:59:19;15.21;72.69
77052;SHT30;65980;44.898;8.602;2023-04-24T01:02:24;15.12;73.05
77052;SHT30;65980;44.898;8.602;2023-04-24T01:05:31;14.97;73.56
77052;SHT30;65980;44.898;8.602;2023-04-24T01:08:35;14.79;74.47
77052;SHT30;65980;44.898;8.602;2023-04-24T01:11:41;14.66;75.27
77052;SHT30;65980;44.898;8.602;2023-04-24T01:14:47;14.56;75.70
77052;SHT30;65980;44.898;8.602;2023-04-24T01:17:53;14.48;76.31
77052;SHT30;65980;44.898;8.602;2023-04-24T01:20:59;14.46;77.20
77052;SHT30;65980;44.898;8.602;2023-04-24T01:24:04;14.35;77.69
77052;SHT30;65980;44.898;8.602;2023-04-24T01:27:12;14.21;78.77
77052;SHT30;65980;44.898;8.602;2023-04-24T01:30:16;14.20;78.86
77052;SHT30;65980;44.898;8.602;2023-04-24T01:33:20;14.14;79.04
77052;SHT30;65980;44.898;8.602;2023-04-24T01:36:25;13.96;79.67
77052;SHT30;65980;44.898;8.602;2023-04-24T01:39:30;13.90;79.96
77052;SHT30;65980;44.898;8.602;2023-04-24T01:42:34;13.82;79.93
77052;SHT30;65980;44.898;8.602;2023-04-24T01:45:40;13.74;80.36
77052;SHT30;65980;44.898;8.602;2023-04-24T01:48:45;13.62;80.86
77052;SHT30;65980;44.898;8.602;2023-04-24T01:51:49;13.66;80.81
77052;SHT30;65980;44.898;8.602;2023-04-24T01:54:54;13.61;80.70
77052;SHT30;65980;44.898;8.602;2023-04-24T01:58:00;13.76;79.77
77052;SHT30;65980;44.898;8.602;2023-04-24T02:01:06;13.55;80.34
77052;SHT30;65980;44.898;8.602;2023-04-24T02:04:10;13.44;80.99
77052;SHT30;65980;44.898;8.602;2023-04-24T02:07:14;13.34;81.17
77052;SHT30;65980;44.898;8.602;2023-04-24T02:10:18;13.31;81.50
77052;SHT30;65980;44.898;8.602;2023-04-24T02:13:22;13.25;81.73
77052;SHT30;65980;44.898;8.602;2023-04-24T02:16:27;13.39;81.27
77052;SHT30;65980;44.898;8.602;2023-04-24T02:19:34;13.28;81.17
77052;SHT30;65980;44.898;8.602;2023-04-24T02:22:42;13.21;81.74
77052;SHT30;65980;44.898;8.602;2023-04-24T02:25:46;13.34;80.91
77052;SHT30;65980;44.898;8.602;2023-04-24T02:28:51;13.42;80.61
77052;SHT30;65980;44.898;8.602;2023-04-24T02:31:58;13.66;79.96
77052;SHT30;65980;44.898;8.602;2023-04-24T02:35:02;13.76;79.51
77052;SHT30;65980;44.898;8.602;2023-04-24T02:38:07;13.28;81.10
77052;SHT30;65980;44.898;8.602;2023-04-24T02:41:13;13.04;82.31
77052;SHT30;65980;44.898;8.602;2023-04-24T02:44:17;12.97;82.77
77052;SHT30;65980;44.898;8.602;2023-04-24T02:47:21;12.93;83.02
77052;SHT30;65980;44.898;8.602;2023-04-24T02:50:26;12.92;83.52
77052;SHT30;65980;44.898;8.602;2023-04-24T02:53:30;12.87;83.50
77052;SHT30;65980;44.898;8.602;2023-04-24T02:56:35;13.01;82.92
77052;SHT30;65980;44.898;8.602;2023-04-24T02:59:40;13.17;82.38
77052;SHT30;65980;44.898;8.602;2023-04-24T03:02:44;13.08;82.22
77052;SHT30;65980;44.898;8.602;2023-04-24T03:05:48;12.76;83.59
77052;SHT30;65980;44.898;8.602;2023-04-24T03:08:52;12.76;83.74
77052;SHT30;65980;44.898;8.602;2023-04-24T03:11:57;12.49;84.68
77052;SHT30;65980;44.898;8.602;2023-04-24T03:15:02;12.38;84.93
77052;SHT30;65980;44.898;8.602;2023-04-24T03:18:06;12.34;84.93
77052;SHT30;65980;44.898;8.602;2023-04-24T03:21:10;12.18;85.34
77052;SHT30;65980;44.898;8.602;2023-04-24T03:24:15;12.21;85.10
77052;SHT30;65980;44.898;8.602;2023-04-24T03:27:19;12.20;85.02
77052;SHT30;65980;44.898;8.602;2023-04-24T03:30:31;12.20;85.01
77052;SHT30;65980;44.898;8.602;2023-04-24T03:33:37;11.98;85.93
77052;SHT30;65980;44.898;8.602;2023-04-24T03:36:41;11.98;85.74
77052;SHT30;65980;44.898;8.602;2023-04-24T03:39:46;11.86;85.86
77052;SHT30;65980;44.898;8.602;2023-04-24T03:42:52;11.86;86.05
77052;SHT30;65980;44.898;8.602;2023-04-24T03:45:57;11.84;85.92
77052;SHT30;65980;44.898;8.602;2023-04-24T03:49:02;11.77;86.36
77052;SHT30;65980;44.898;8.602;2023-04-24T03:52:10;11.76;86.22
77052;SHT30;65980;44.898;8.602;2023-04-24T03:55:14;11.80;85.95
77052;SHT30;65980;44.898;8.602;2023-04-24T03:58:22;11.94;85.06
77052;SHT30;65980;44.898;8.602;2023-04-24T04:01:27;12.14;84.41
77052;SHT30;65980;44.898;8.602;2023-04-24T04:04:46;12.01;84.81
77052;SHT30;65980;44.898;8.602;2023-04-24T04:07:50;12.13;84.68
77052;SHT30;65980;44.898;8.602;2023-04-24T04:10:54;12.03;84.90
77052;SHT30;65980;44.898;8.602;2023-04-24T04:13:58;11.79;85.96
77052;SHT30;65980;44.898;8.602;2023-04-24T04:17:02;11.58;86.24
77052;SHT30;65980;44.898;8.602;2023-04-24T04:20:06;11.48;86.57
77052;SHT30;65980;44.898;8.602;2023-04-24T04:23:15;11.39;87.02
77052;SHT30;65980;44.898;8.602;2023-04-24T04:26:39;11.27;87.33
77052;SHT30;65980;44.898;8.602;2023-04-24T04:29:46;11.20;87.16
77052;SHT30;65980;44.898;8.602;2023-04-24T04:32:52;11.01;88.10
77052;SHT30;65980;44.898;8.602;2023-04-24T04:35:56;10.90;88.37
77052;SHT30;65980;44.898;8.602;2023-04-24T04:39:03;10.87;87.91
77052;SHT30;65980;44.898;8.602;2023-04-24T04:42:23;10.93;87.57
77052;SHT30;65980;44.898;8.602;2023-04-24T04:45:28;10.76;87.97
77052;SHT30;65980;44.898;8.602;2023-04-24T04:48:56;10.65;88.19
77052;SHT30;65980;44.898;8.602;2023-04-24T04:52:00;10.69;88.46
77052;SHT30;65980;44.898;8.602;2023-04-24T04:55:05;10.77;87.91
77052;SHT30;65980;44.898;8.602;2023-04-24T04:58:30;10.83;87.53
77052;SHT30;65980;44.898;8.602;2023-04-24T05:01:37;10.76;88.00
77052;SHT30;65980;44.898;8.602;2023-04-24T05:04:50;10.77;88.21
77052;SHT30;65980;44.898;8.602;2023-04-24T05:07:55;10.93;87.84
77052;SHT30;65980;44.898;8.602;2023-04-24T05:10:59;10.94;87.51
77052;SHT30;65980;44.898;8.602;2023-04-24T05:14:06;10.86;87.72
77052;SHT30;65980;44.898;8.602;2023-04-24T05:17:13;10.77;87.96
77052;SHT30;65980;44.898;8.602;2023-04-24T05:20:18;10.81;87.92
77052;SHT30;65980;44.898;8.602;2023-04-24T05:23:22;10.87;87.98
77052;SHT30;65980;44.898;8.602;2023-04-24T05:26:30;10.90;88.10
77052;SHT30;65980;44.898;8.602;2023-04-24T05:29:36;11.00;88.03
77052;SHT30;65980;44.898;8.602;2023-04-24T05:32:43;11.17;87.92
77052;SHT30;65980;44.898;8.602;2023-04-24T05:35:48;11.25;87.92
77052;SHT30;65980;44.898;8.602;2023-04-24T05:38:53;11.52;87.14
77052;SHT30;65980;44.898;8.602;2023-04-24T05:41:57;11.65;86.87
77052;SHT30;65980;44.898;8.602;2023-04-24T05:45:02;11.90;86.06
77052;SHT30;65980;44.898;8.602;2023-04-24T05:48:07;12.05;84.88
77052;SHT30;65980;44.898;8.602;2023-04-24T05:51:11;11.97;85.51
77052;SHT30;65980;44.898;8.602;2023-04-24T05:54:15;12.05;85.24
77052;SHT30;65980;44.898;8.602;2023-04-24T05:57:19;12.08;85.45
77052;SHT30;65980;44.898;8.602;2023-04-24T06:00:32;12.13;85.28
77052;SHT30;65980;44.898;8.602;2023-04-24T06:03:42;12.05;85.26
77052;SHT30;65980;44.898;8.602;2023-04-24T06:06:46;12.07;85.63
77052;SHT30;65980;44.898;8.602;2023-04-24T06:09:55;12.21;85.26
77052;SHT30;65980;44.898;8.602;2023-04-24T06:13:00;12.29;84.99
77052;SHT30;65980;44.898;8.602;2023-04-24T06:16:06;12.35;84.57
77052;SHT30;65980;44.898;8.602;2023-04-24T06:19:14;12.29;84.92
77052;SHT30;65980;44.898;8.602;2023-04-24T06:22:19;12.28;84.81
77052;SHT30;65980;44.898;8.602;2023-04-24T06:25:25;12.29;84.42
77052;SHT30;65980;44.898;8.602;2023-04-24T06:28:30;12.44;84.29
77052;SHT30;65980;44.898;8.602;2023-04-24T06:31:36;12.57;83.45
77052;SHT30;65980;44.898;8.602;2023-04-24T06:34:41;12.67;83.49
77052;SHT30;65980;44.898;8.602;2023-04-24T06:37:46;12.70;83.59
77052;SHT30;65980;44.898;8.602;2023-04-24T06:40:50;12.69;83.79
77052;SHT30;65980;44.898;8.602;2023-04-24T06:43:57;12.76;83.83
77052;SHT30;65980;44.898;8.602;2023-04-24T06:47:13;12.99;83.06
77052;SHT30;65980;44.898;8.602;2023-04-24T06:50:21;13.15;82.63
77052;SHT30;65980;44.898;8.602;2023-04-24T06:53:25;13.35;81.77
77052;SHT30;65980;44.898;8.602;2023-04-24T06:56:41;13.55;81.46
77052;SHT30;65980;44.898;8.602;2023-04-24T06:59:51;13.52;81.44
77052;SHT30;65980;44.898;8.602;2023-04-24T07:02:55;13.62;80.93
77052;SHT30;65980;44.898;8.602;2023-04-24T07:06:00;13.67;81.01
77052;SHT30;65980;44.898;8.602;2023-04-24T07:09:04;13.93;80.02
77052;SHT30;65980;44.898;8.602;2023-04-24T07:12:08;14.04;79.39
77052;SHT30;65980;44.898;8.602;2023-04-24T07:15:14;14.34;78.46
77052;SHT30;65980;44.898;8.602;2023-04-24T07:18:18;14.66;77.70
77052;SHT30;65980;44.898;8.602;2023-04-24T07:21:23;14.63;76.86
77052;SHT30;65980;44.898;8.602;2023-04-24T07:24:28;15.00;76.37
77052;SHT30;65980;44.898;8.602;2023-04-24T07:27:32;14.46;76.51
77052;SHT30;65980;44.898;8.602;2023-04-24T07:30:38;14.58;75.89
77052;SHT30;65980;44.898;8.602;2023-04-24T07:33:41;15.00;74.67
77052;SHT30;65980;44.898;8.602;2023-04-24T07:36:46;14.89;75.86
77052;SHT30;65980;44.898;8.602;2023-04-24T07:39:51;14.66;75.72
77052;SHT30;65980;44.898;8.602;2023-04-24T07:42:56;15.16;73.61
77052;SHT30;65980;44.898;8.602;2023-04-24T07:46:01;15.36;72.97
77052;SHT30;65980;44.898;8.602;2023-04-24T07:49:04;15.74;71.29
77052;SHT30;65980;44.898;8.602;2023-04-24T07:52:08;15.89;70.82
77052;SHT30;65980;44.898;8.602;2023-04-24T07:55:13;16.13;70.10
77052;SHT30;65980;44.898;8.602;2023-04-24T07:58:18;16.42;69.98
77052;SHT30;65980;44.898;8.602;2023-04-24T08:01:23;16.51;68.80
77052;SHT30;65980;44.898;8.602;2023-04-24T08:04:27;16.63;68.10
77052;SHT30;65980;44.898;8.602;2023-04-24T08:07:31;16.20;70.09
77052;SHT30;65980;44.898;8.602;2023-04-24T08:10:35;15.73;71.20
77052;SHT30;65980;44.898;8.602;2023-04-24T08:13:40;15.63;71.22
77052;SHT30;65980;44.898;8.602;2023-04-24T08:16:45;16.10;71.12
77052;SHT30;65980;44.898;8.602;2023-04-24T08:19:49;16.68;67.90
77052;SHT30;65980;44.898;8.602;2023-04-24T08:22:55;16.70;68.21
77052;SHT30;65980;44.898;8.602;2023-04-24T08:26:00;16.70;67.35
77052;SHT30;65980;44.898;8.602;2023-04-24T08:29:04;16.72;65.87
77052;SHT30;65980;44.898;8.602;2023-04-24T08:32:10;16.83;65.28
77052;SHT30;65980;44.898;8.602;2023-04-24T08:35:14;16.75;66.30
77052;SHT30;65980;44.898;8.602;2023-04-24T08:38:19;16.99;66.05
77052;SHT30;65980;44.898;8.602;2023-04-24T08:41:23;17.36;66.35
77052;SHT30;65980;44.898;8.602;2023-04-24T08:44:30;17.56;63.43
77052;SHT30;65980;44.898;8.602;2023-04-24T08:47:35;17.62;64.23
77052;SHT30;65980;44.898;8.602;2023-04-24T08:50:39;17.06;64.65
77052;SHT30;65980;44.898;8.602;2023-04-24T08:53:45;17.24;64.62
77052;SHT30;65980;44.898;8.602;2023-04-24T08:56:50;17.56;63.60
77052;SHT30;65980;44.898;8.602;2023-04-24T08:59:56;17.36;65.31
77052;SHT30;65980;44.898;8.602;2023-04-24T09:03:00;17.31;64.69
77052;SHT30;65980;44.898;8.602;2023-04-24T09:06:14;17.89;63.29
77052;SHT30;65980;44.898;8.602;2023-04-24T09:09:22;17.83;64.48
77052;SHT30;65980;44.898;8.602;2023-04-24T09:12:30;17.38;65.16
77052;SHT30;65980;44.898;8.602;2023-04-24T09:15:34;17.76;63.71
77052;SHT30;65980;44.898;8.602;2023-04-24T09:18:37;18.03;63.46
77052;SHT30;65980;44.898;8.602;2023-04-24T09:21:42;18.25;61.79
77052;SHT30;65980;44.898;8.602;2023-04-24T09:25:14;18.37;60.97
77052;SHT30;65980;44.898;8.602;2023-04-24T09:28:17;18.79;59.84
77052;SHT30;65980;44.898;8.602;2023-04-24T09:31:22;18.89;59.84
77052;SHT30;65980;44.898;8.602;2023-04-24T09:34:27;19.90;56.34
77052;SHT30;65980;44.898;8.602;2023-04-24T09:41:02;18.63;60.15
77052;SHT30;65980;44.898;8.602;2023-04-24T09:47:35;19.59;59.20
77052;SHT30;65980;44.898;8.602;2023-04-24T09:50:40;19.65;57.68
77052;SHT30;65980;44.898;8.602;2023-04-24T09:53:50;20.06;56.28
77052;SHT30;65980;44.898;8.602;2023-04-24T09:57:00;20.61;55.20
77052;SHT30;65980;44.898;8.602;2023-04-24T10:00:05;21.75;54.43
77052;SHT30;65980;44.898;8.602;2023-04-24T10:06:33;26.32;42.98
77052;SHT30;65980;44.898;8.602;2023-04-24T10:09:38;28.27;38.42
77052;SHT30;65980;44.898;8.602;2023-04-24T10:12:42;26.19;41.80
77052;SHT30;65980;44.898;8.602;2023-04-24T10:15:48;27.54;39.27
77052;SHT30;65980;44.898;8.602;2023-04-24T10:18:52;28.88;36.78
77052;SHT30;65980;44.898;8.602;2023-04-24T10:21:58;28.08;38.60
77052;SHT30;65980;44.898;8.602;2023-04-24T10:25:02;31.32;33.27
77052;SHT30;65980;44.898;8.602;2023-04-24T10:28:07;29.60;33.70
77052;SHT30;65980;44.898;8.602;2023-04-24T10:31:12;28.08;35.46
77052;SHT30;65980;44.898;8.602;2023-04-24T10:34:17;27.53;35.68
77052;SHT30;65980;44.898;8.602;2023-04-24T10:37:23;28.61;35.10
77052;SHT30;65980;44.898;8.602;2023-04-24T10:40:32;29.15;34.39
77052;SHT30;65980;44.898;8.602;2023-04-24T10:43:37;29.15;34.25
77052;SHT30;65980;44.898;8.602;2023-04-24T10:46:43;28.67;35.30
77052;SHT30;65980;44.898;8.602;2023-04-24T10:49:47;25.67;36.70
77052;SHT30;65980;44.898;8.602;2023-04-24T10:53:04;24.96;40.29
77052;SHT30;65980;44.898;8.602;2023-04-24T10:56:09;23.27;44.79
77052;SHT30;65980;44.898;8.602;2023-04-24T10:59:27;26.67;38.13
77052;SHT30;65980;44.898;8.602;2023-04-24T11:02:37;28.12;34.73
77052;SHT30;65980;44.898;8.602;2023-04-24T11:05:52;25.13;38.85
77052;SHT30;65980;44.898;8.602;2023-04-24T11:09:04;23.46;42.37
77052;SHT30;65980;44.898;8.602;2023-04-24T11:12:10;22.92;40.62
77052;SHT30;65980;44.898;8.602;2023-04-24T11:15:15;22.43;40.90
77052;SHT30;65980;44.898;8.602;2023-04-24T11:18:23;22.12;37.27
77052;SHT30;65980;44.898;8.602;2023-04-24T11:21:31;22.12;40.53
77052;SHT30;65980;44.898;8.602;2023-04-24T11:24:40;22.27;37.55
77052;SHT30;65980;44.898;8.602;2023-04-24T11:28:05;22.88;40.45
77052;SHT30;65980;44.898;8.602;2023-04-24T11:34:32;23.54;38.52
77052;SHT30;65980;44.898;8.602;2023-04-24T11:37:38;23.23;39.04
77052;SHT30;65980;44.898;8.602;2023-04-24T11:40:44;23.30;39.98
77052;SHT30;65980;44.898;8.602;2023-04-24T11:43:49;22.82;40.55
77052;SHT30;65980;44.898;8.602;2023-04-24T11:46:55;22.95;40.48
77052;SHT30;65980;44.898;8.602;2023-04-24T11:50:07;23.31;38.65
77052;SHT30;65980;44.898;8.602;2023-04-24T11:53:12;23.33;38.87
77052;SHT30;65980;44.898;8.602;2023-04-24T11:56:18;23.76;38.99
77052;SHT30;65980;44.898;8.602;2023-04-24T11:59:25;24.21;36.54
77052;SHT30;65980;44.898;8.602;2023-04-24T12:02:30;23.24;38.02
77052;SHT30;65980;44.898;8.602;2023-04-24T12:05:35;23.54;37.40
77052;SHT30;65980;44.898;8.602;2023-04-24T12:08:39;22.96;38.47
77052;SHT30;65980;44.898;8.602;2023-04-24T12:11:52;23.07;35.42
77052;SHT30;65980;44.898;8.602;2023-04-24T12:14:59;23.40;33.89
77052;SHT30;65980;44.898;8.602;2023-04-24T12:18:04;23.62;34.25
77052;SHT30;65980;44.898;8.602;2023-04-24T12:21:21;23.55;32.98
77052;SHT30;65980;44.898;8.602;2023-04-24T12:24:25;23.71;35.16
77052;SHT30;65980;44.898;8.602;2023-04-24T12:27:30;24.08;33.09
77052;SHT30;65980;44.898;8.602;2023-04-24T12:30:38;24.09;33.14
77052;SHT30;65980;44.898;8.602;2023-04-24T12:33:42;23.48;32.38
77052;SHT30;65980;44.898;8.602;2023-04-24T12:36:47;23.72;33.40
77052;SHT30;65980;44.898;8.602;2023-04-24T12:40:25;23.82;34.92
77052;SHT30;65980;44.898;8.602;2023-04-24T12:43:21;23.81;32.30
77052;SHT30;65980;44.898;8.602;2023-04-24T12:46:26;23.75;31.11
77052;SHT30;65980;44.898;8.602;2023-04-24T12:49:31;23.68;31.43
77052;SHT30;65980;44.898;8.602;2023-04-24T12:52:36;23.90;30.86
77052;SHT30;65980;44.898;8.602;2023-04-24T12:55:43;24.06;31.55
77052;SHT30;65980;44.898;8.602;2023-04-24T12:58:48;23.98;31.48
77052;SHT30;65980;44.898;8.602;2023-04-24T13:01:53;24.06;31.61
77052;SHT30;65980;44.898;8.602;2023-04-24T13:04:57;24.16;31.82
77052;SHT30;65980;44.898;8.602;2023-04-24T13:08:01;24.30;31.11
77052;SHT30;65980;44.898;8.602;2023-04-24T13:11:06;24.23;30.19
77052;SHT30;65980;44.898;8.602;2023-04-24T13:14:09;24.34;31.37
77052;SHT30;65980;44.898;8.602;2023-04-24T13:17:14;24.67;31.64
77052;SHT30;65980;44.898;8.602;2023-04-24T13:20:18;24.65;31.07
77052;SHT30;65980;44.898;8.602;2023-04-24T13:23:23;24.55;30.88
77052;SHT30;65980;44.898;8.602;2023-04-24T13:26:28;24.45;29.89
77052;SHT30;65980;44.898;8.602;2023-04-24T13:29:33;24.54;31.68
77052;SHT30;65980;44.898;8.602;2023-04-24T13:32:37;24.69;32.36
77052;SHT30;65980;44.898;8.602;2023-04-24T13:35:41;24.81;32.32
77052;SHT30;65980;44.898;8.602;2023-04-24T13:38:49;24.78;27.46
77052;SHT30;65980;44.898;8.602;2023-04-24T13:41:53;24.61;27.55
77052;SHT30;65980;44.898;8.602;2023-04-24T13:44:57;24.72;26.80
77052;SHT30;65980;44.898;8.602;2023-04-24T13:48:01;25.03;27.24
77052;SHT30;65980;44.898;8.602;2023-04-24T13:51:06;25.10;25.32
77052;SHT30;65980;44.898;8.602;2023-04-24T13:54:10;25.24;29.52
77052;SHT30;65980;44.898;8.602;2023-04-24T13:57:15;25.05;26.86
77052;SHT30;65980;44.898;8.602;2023-04-24T14:00:20;25.10;27.06
77052;SHT30;65980;44.898;8.602;2023-04-24T14:03:25;25.17;30.03
77052;SHT30;65980;44.898;8.602;2023-04-24T14:06:30;25.40;29.00
77052;SHT30;65980;44.898;8.602;2023-04-24T14:09:34;25.62;28.68
77052;SHT30;65980;44.898;8.602;2023-04-24T14:12:41;25.57;28.32
77052;SHT30;65980;44.898;8.602;2023-04-24T14:15:45;25.72;26.49
77052;SHT30;65980;44.898;8.602;2023-04-24T14:18:50;25.72;26.88
77052;SHT30;65980;44.898;8.602;2023-04-24T14:21:56;25.79;26.57
77052;SHT30;65980;44.898;8.602;2023-04-24T14:25:01;25.70;25.16
77052;SHT30;65980;44.898;8.602;2023-04-24T14:28:06;25.84;25.64
77052;SHT30;65980;44.898;8.602;2023-04-24T14:31:10;25.64;25.88
77052;SHT30;65980;44.898;8.602;2023-04-24T14:34:14;25.70;24.44
77052;SHT30;65980;44.898;8.602;2023-04-24T14:37:18;25.68;24.54
77052;SHT30;65980;44.898;8.602;2023-04-24T14:40:22;25.86;24.07
77052;SHT30;65980;44.898;8.602;2023-04-24T14:43:26;25.75;24.93
77052;SHT30;65980;44.898;8.602;2023-04-24T14:46:31;25.55;27.04
77052;SHT30;65980;44.898;8.602;2023-04-24T14:49:36;25.62;24.72
77052;SHT30;65980;44.898;8.602;2023-04-24T14:52:49;25.40;23.84
77052;SHT30;65980;44.898;8.602;2023-04-24T14:55:53;25.28;23.74
77052;SHT30;65980;44.898;8.602;2023-04-24T14:58:58;25.30;24.16
77052;SHT30;65980;44.898;8.602;2023-04-24T15:02:02;25.62;24.44
77052;SHT30;65980;44.898;8.602;2023-04-24T15:05:07;25.84;24.51
77052;SHT30;65980;44.898;8.602;2023-04-24T15:08:11;25.62;26.76
77052;SHT30;65980;44.898;8.602;2023-04-24T15:11:15;25.51;25.58
77052;SHT30;65980;44.898;8.602;2023-04-24T15:14:19;25.67;26.38
77052;SHT30;65980;44.898;8.602;2023-04-24T15:17:24;25.74;26.11
77052;SHT30;65980;44.898;8.602;2023-04-24T15:20:28;26.03;26.87
77052;SHT30;65980;44.898;8.602;2023-04-24T15:23:32;26.02;24.84
77052;SHT30;65980;44.898;8.602;2023-04-24T15:26:36;26.08;24.95
77052;SHT30;65980;44.898;8.602;2023-04-24T15:29:41;26.22;25.69
77052;SHT30;65980;44.898;8.602;2023-04-24T15:32:45;26.71;25.04
77052;SHT30;65980;44.898;8.602;2023-04-24T15:39:31;27.22;27.25
77052;SHT30;65980;44.898;8.602;2023-04-24T15:42:36;26.29;29.05
77052;SHT30;65980;44.898;8.602;2023-04-24T15:45:40;25.68;28.90
77052;SHT30;65980;44.898;8.602;2023-04-24T15:48:44;25.44;30.58
77052;SHT30;65980;44.898;8.602;2023-04-24T15:51:48;25.28;30.31
77052;SHT30;65980;44.898;8.602;2023-04-24T15:54:52;25.22;29.88
77052;SHT30;65980;44.898;8.602;2023-04-24T15:57:56;25.20;29.56
77052;SHT30;65980;44.898;8.602;2023-04-24T16:01:00;25.36;30.45
77052;SHT30;65980;44.898;8.602;2023-04-24T16:04:04;24.95;30.62
77052;SHT30;65980;44.898;8.602;2023-04-24T16:07:08;25.08;31.21
77052;SHT30;65980;44.898;8.602;2023-04-24T16:10:12;24.82;32.43
77052;SHT30;65980;44.898;8.602;2023-04-24T16:13:16;24.95;32.09
77052;SHT30;65980;44.898;8.602;2023-04-24T16:16:23;24.79;32.68
77052;SHT30;65980;44.898;8.602;2023-04-24T16:19:27;24.96;31.62
77052;SHT30;65980;44.898;8.602;2023-04-24T16:22:31;25.05;31.81
77052;SHT30;65980;44.898;8.602;2023-04-24T16:25:35;25.12;31.41
77052;SHT30;65980;44.898;8.602;2023-04-24T16:28:39;24.91;31.88
77052;SHT30;65980;44.898;8.602;2023-04-24T16:31:45;24.96;31.53
77052;SHT30;65980;44.898;8.602;2023-04-24T16:34:49;24.82;31.97
77052;SHT30;65980;44.898;8.602;2023-04-24T16:37:54;24.65;31.86
77052;SHT30;65980;44.898;8.602;2023-04-24T16:40:58;24.69;32.30
77052;SHT30;65980;44.898;8.602;2023-04-24T16:44:03;24.38;33.33
77052;SHT30;65980;44.898;8.602;2023-04-24T16:47:07;24.33;34.48
77052;SHT30;65980;44.898;8.602;2023-04-24T16:50:12;24.21;35.13
77052;SHT30;65980;44.898;8.602;2023-04-24T16:53:16;24.30;35.21
77052;SHT30;65980;44.898;8.602;2023-04-24T16:56:20;24.13;35.81
77052;SHT30;65980;44.898;8.602;2023-04-24T16:59:24;23.90;35.56
77052;SHT30;65980;44.898;8.602;2023-04-24T17:02:28;23.89;35.81
77052;SHT30;65980;44.898;8.602;2023-04-24T17:05:32;23.79;35.53
77052;SHT30;65980;44.898;8.602;2023-04-24T17:08:37;24.23;34.28
77052;SHT30;65980;44.898;8.602;2023-04-24T17:11:41;24.03;34.23
77052;SHT30;65980;44.898;8.602;2023-04-24T17:14:45;23.62;34.77
77052;SHT30;65980;44.898;8.602;2023-04-24T17:17:49;23.69;34.84
77052;SHT30;65980;44.898;8.602;2023-04-24T17:20:53;23.50;35.36
77052;SHT30;65980;44.898;8.602;2023-04-24T17:23:57;23.28;35.94
77052;SHT30;65980;44.898;8.602;2023-04-24T17:27:02;22.89;37.13
77052;SHT30;65980;44.898;8.602;2023-04-24T17:30:10;22.82;37.00
77052;SHT30;65980;44.898;8.602;2023-04-24T17:33:15;22.51;37.31
77052;SHT30;65980;44.898;8.602;2023-04-24T17:36:19;22.49;37.44
77052;SHT30;65980;44.898;8.602;2023-04-24T17:39:23;22.40;37.53
77052;SHT30;65980;44.898;8.602;2023-04-24T17:42:27;22.37;37.25
77052;SHT30;65980;44.898;8.602;2023-04-24T17:45:31;22.24;37.48
77052;SHT30;65980;44.898;8.602;2023-04-24T17:48:35;21.82;38.17
77052;SHT30;65980;44.898;8.602;2023-04-24T17:51:39;21.62;38.75
77052;SHT30;65980;44.898;8.602;2023-04-24T17:54:48;21.48;38.83
77052;SHT30;65980;44.898;8.602;2023-04-24T17:58:30;21.15;39.65
77052;SHT30;65980;44.898;8.602;2023-04-24T18:01:35;21.27;38.77
77052;SHT30;65980;44.898;8.602;2023-04-24T18:04:42;21.19;38.79
77052;SHT30;65980;44.898;8.602;2023-04-24T18:07:46;20.97;38.39
77052;SHT30;65980;44.898;8.602;2023-04-24T18:10:50;20.86;38.56
77052;SHT30;65980;44.898;8.602;2023-04-24T18:13:54;20.78;39.25
77052;SHT30;65980;44.898;8.602;2023-04-24T18:16:58;20.48;40.28
77052;SHT30;65980;44.898;8.602;2023-04-24T18:20:02;20.16;41.45
77052;SHT30;65980;44.898;8.602;2023-04-24T18:23:06;20.21;42.01
77052;SHT30;65980;44.898;8.602;2023-04-24T18:26:10;20.12;42.14
77052;SHT30;65980;44.898;8.602;2023-04-24T18:29:19;20.16;42.22
77052;SHT30;65980;44.898;8.602;2023-04-24T18:32:23;19.93;42.71
77052;SHT30;65980;44.898;8.602;2023-04-24T18:35:27;19.73;43.38
77052;SHT30;65980;44.898;8.602;2023-04-24T18:38:35;19.50;43.76
77052;SHT30;65980;44.898;8.602;2023-04-24T18:41:42;19.23;44.49
77052;SHT30;65980;44.898;8.602;2023-04-24T18:44:46;19.27;44.67
77052;SHT30;65980;44.898;8.602;2023-04-24T18:47:50;19.31;44.38
77052;SHT30;65980;44.898;8.602;2023-04-24T18:50:54;19.14;45.06
77052;SHT30;65980;44.898;8.602;2023-04-24T18:53:58;19.03;45.73
77052;SHT30;65980;44.898;8.602;2023-04-24T18:57:09;19.07;45.57
77052;SHT30;65980;44.898;8.602;2023-04-24T19:00:13;19.02;45.73
77052;SHT30;65980;44.898;8.602;2023-04-24T19:03:18;18.96;46.09
77052;SHT30;65980;44.898;8.602;2023-04-24T19:06:22;18.76;46.57
77052;SHT30;65980;44.898;8.602;2023-04-24T19:09:26;18.42;47.69
77052;SHT30;65980;44.898;8.602;2023-04-24T19:12:30;18.35;47.45
77052;SHT30;65980;44.898;8.602;2023-04-24T19:15:34;18.35;47.27
77052;SHT30;65980;44.898;8.602;2023-04-24T19:18:38;18.11;47.67
77052;SHT30;65980;44.898;8.602;2023-04-24T19:21:43;18.23;47.28
77052;SHT30;65980;44.898;8.602;2023-04-24T19:24:48;18.00;47.74
77052;SHT30;65980;44.898;8.602;2023-04-24T19:27:56;18.16;47.47
77052;SHT30;65980;44.898;8.602;2023-04-24T19:31:00;18.00;47.85
77052;SHT30;65980;44.898;8.602;2023-04-24T19:34:04;17.93;47.76
77052;SHT30;65980;44.898;8.602;2023-04-24T19:37:11;17.59;48.71
77052;SHT30;65980;44.898;8.602;2023-04-24T19:40:16;17.56;48.65
77052;SHT30;65980;44.898;8.602;2023-04-24T19:43:20;17.65;48.39
77052;SHT30;65980;44.898;8.602;2023-04-24T19:46:24;17.45;49.22
77052;SHT30;65980;44.898;8.602;2023-04-24T19:52:58;17.53;48.94